Aérodrome :
LOGIN :

S'inscrire | Disclaimer

   EN    FR    IT 

 










Légende :    VFR   VFR Marginal   IFR   IFR Intensif   IFR Très Intensif
Visi : 
Plafond : 
>= 8 km
>= 3000ft
5 à 8 km
1000 à 3000 ft
1500m à 5 km
500 à 1000 ft
800 à 1500m
200 à 500 ft
< 800m
< 200 ft
Symboles :   Orages  Brouillard  Fortes neiges  Fortes précipitations  Vent > 20 kt
SIGMETs :   Divers  Orages  Givrage  Turbulence  Onde Orograph.  Cendres Volcan.







- Altitude de l'aérodrome : 32 ft
- Code IATA : LKZ


EGUL - RAF Lakenheath

DERNIER METAR :
  • 141156Z AUTO 24016KT 9999 CLR 05/05 A2919 RMK AO2 DZB53 SLP888 P0000 60000 70020 T00540054 10054 20031 58006 $

METARs EXPIRÉS :
  • 141056Z 24017KT 9999 CLR 05/05 A2920 RMK AO2A SLP892 T00480048 $
  • 140956Z AUTO 24014G21KT 9999 CLR 04/04 A2921 RMK AO2 DZB08E18DZB23E27 SLP895 P0000 T00380038 $

TAF TAF EGUL
Valide du 14 à 12h jusqu'au 15 à 18h UTC


141207Z 1412/1518 25012G20KT 9999 FEW020 QNH2915INS
BECMG 1415/1416 24009KT 9999 FEW025 QNH2910INS
BECMG 1420/1421 25009KT 9999 SCT010 BKN025 620254 QNH2914INS
BECMG 1500/1501 26009KT 8000 -SHRA BKN010 620106 QNH2918INS
BECMG 1505/1506 26009KT 9999 NSW SCT010 BKN025 620254 QNH2919INS
BECMG 1508/1509 33012G20KT 9999 FEW015 QNH2924INS
BECMG 1514/1515 32009KT 9999 SCT010 QNH2928INS TX06/1512Z TN02/1503Z
Pas de NOTAMs connus pour ce terrain.
1 SIGMET publié pour la FIR London (EGTT) :
 
Turbulence forte
EGTT SIGMET 03 VALID 141100/141500 EGRR
EGTT LONDON FIR SEV TURB FCST SW OF LINE N5000 W00019 - N5153 W00620 SFC/FL060 STNR NC=



MET'MAP, la Météo Aéronautique d'un coup d'oeil ! - Copyright ORBIFLY Décembre 2007 - Disclaimer

ORBIFLY MET'MAP TEAM :

Programmation & Développement : Alexandra Zaïnal
Conception & Développement : Baudouin d'Aumeries
Co-Programmation & Développement : Marc-Olivier Méhu
Soutien technique & logistique : Manuel Goepfert

Contact : metmap@orbifly.com




SOURCES & CREDITS :

   NOAA